Port Hardy Airport
CYZT : rendu visible

Aérodrome :











RETROUVEZ-NOUS SUR...

 
LOGIN :

S'inscrire | Disclaimer

   EN    FR    IT 

 









Légende :    VFR   VFR Marginal   IFR   IFR Intensif   IFR Très Intensif
Visi : 
Plafond : 
>= 8 km
>= 3000ft
5 à 8 km
1000 à 3000 ft
1500m à 5 km
500 à 1000 ft
800 à 1500m
200 à 500 ft
< 800m
< 200 ft
Symboles :   Orages  Brouillard  Fortes neiges  Fortes précipitations  Vent > 20 kt






- Altitude de l'aérodrome : 71 ft
- Code IATA : YZT


CYZT - Port Hardy

DERNIER METAR :
  • 210300Z 25005KT 15SM FEW035 SCT100 06/05 A3014 RMK CU1AC2 SLP208

METARs EXPIRÉS :
  • 210200Z 23002KT 20SM FEW035 SCT060 BKN100 08/06 A3014 RMK CU2SC1AC2 SLP210
  • 210100Z 19003KT 170V250 20SM FEW035TCU SCT060 BKN100 09/06 A3015 RMK TCU2SC2AC2 SLP211

TAF TAF CYZT
Valide du 21 à 01h jusqu'au 21 à 13h UTC


210042Z 2101/2113 25005KT P6SM SCT030 BKN070
TEMPO 2101/2109 P6SM -SHRA SCT015 BKN030
FM210900 26005KT P6SM -SHRA SCT015 BKN030 RMK NXT FCST BY 210700Z
FIR CZVR / Amérique du Nord



MET'MAP, la Météo Aéronautique d'un coup d'oeil ! - Copyright ORBIFLY Décembre 2007 - Disclaimer

ORBIFLY MET'MAP TEAM :

Programmation & Développement : Alexandra Zaïnal
Sur une idée originale de : Baudouin d'Aumeries
Assistance à la programmation : Marc-Olivier Méhu
Soutien technique & logistique : Manuel Goepfert

Contact : metmap@orbifly.com




SOURCES & CREDITS :

   NOAA       Earth
Advisory